Stony Rapids Airport
CYSF : rendu visible

Aérodrome :











RETROUVEZ-NOUS SUR...

 
LOGIN :

S'inscrire | Disclaimer

   EN    FR    IT 

 









Légende :    VFR   VFR Marginal   IFR   IFR Intensif   IFR Très Intensif
Visi : 
Plafond : 
>= 8 km
>= 3000ft
5 à 8 km
1000 à 3000 ft
1500m à 5 km
500 à 1000 ft
800 à 1500m
200 à 500 ft
< 800m
< 200 ft
Symboles :   Orages  Brouillard  Fortes neiges  Fortes précipitations  Vent > 20 kt






- Altitude de l'aérodrome : 805 ft
- Code IATA : YSF


CYSF - Stony Rapids

DERNIER METAR :
  • 241447Z AUTO 07006KT 9SM BKN070 M27/M30 A3036 RMK PRESRR SLP316

METARs EXPIRÉS :
  • 241433Z AUTO 07007KT 9SM -SN OVC070 M26/M30 A3034 RMK SLP311
  • 241400Z AUTO 07006KT 9SM BKN070 OVC086 M26/M30 A3033 RMK SLP305
  • 241334Z AUTO 07007KT 9SM SCT036 SCT065 BKN088 M26/M29 A3032 RMK SLP302
  • 241300Z AUTO 07007KT 8SM -SN OVC028 M26/M29 A3031 RMK SLP296
  • 241233Z AUTO 08006KT 9SM -SN BKN038 OVC070 M25/M29 A3029 RMK SLP292
  • 241222Z AUTO 07006KT 9SM FEW055 OVC071 M25/M29 A3029 RMK SLP291
  • 241200Z AUTO 07006KT 9SM -SN OVC065 M25/M29 A3028 RMK SLP289

TAF TAF CYSF
Valide du 24 à 12h jusqu'au 25 à 00h UTC


241138Z 2412/2424 08005KT P6SM FEW080 SCT140
TEMPO 2412/2414 BKN080 OVC140 RMK FCST BASED ON AUTO OBS. NXT FCST BY 241800Z



MET'MAP, la Météo Aéronautique d'un coup d'oeil ! - Copyright ORBIFLY Décembre 2007 - Disclaimer

ORBIFLY MET'MAP TEAM :

Programmation & Développement : Alexandra Zaïnal
Sur une idée originale de : Baudouin d'Aumeries
Assistance à la programmation : Marc-Olivier Méhu
Soutien technique & logistique : Manuel Goepfert

Contact : metmap@orbifly.com




SOURCES & CREDITS :

   NOAA       Earth
Advisory